ADDS METAR Data INFO
IDs: Format: Raw Decoded Include TAF

Data at: 0219 UTC 18 Jan 2018

KTUL 180153Z 17006KT 10SM CLR M04/M13 A3056 RMK AO2 SLP358 T10391128
KTUL 180053Z 13005KT 10SM CLR M05/M14 A3057 RMK AO2 SLP362 T10501144
KTUL 172353Z 17007KT 10SM CLR M02/M14 A3057 RMK AO2 SLP360 T10171144 11006 21056 58016
KTUL 172253Z 16006KT 10SM CLR M01/M14 A3058 RMK AO2 SLP366 T10111144
KTUL 172153Z 16007KT 10SM CLR M01/M14 A3060 RMK AO2 SLP371 T10061144
KTUL 172053Z 15008KT 10SM CLR M01/M14 A3061 RMK AO2 SLP376 T10111144 56038
KTUL 171953Z 18008KT 10SM CLR M02/M14 A3063 RMK AO2 SLP382 T10221139
KTUL 171853Z 15005KT 10SM CLR M04/M14 A3067 RMK AO2 SLP396 T10391139
KTUL 171753Z VRB04KT 10SM CLR M06/M14 A3073 RMK AO2 SLP416 T10561139 11056 21139 58006
KTUL 171653Z VRB03KT 10SM CLR M07/M14 A3076 RMK AO2 SLP429 T10721144
KTUL 171553Z 21003KT 10SM CLR M09/M13 A3076 RMK AO2 SLP427 T10891133
KTUL 171453Z 19003KT 10SM CLR M11/M14 A3074 RMK AO2 SLP423 T11111139 55001
KTUL 171353Z 19003KT 8SM CLR M13/M15 A3074 RMK AO2 SLP423 T11281150
KTUL 171253Z 00000KT 10SM CLR M13/M16 A3074 RMK AO2 SLP423 T11331156
KTUL 171153Z 00000KT 10SM CLR M13/M16 A3075 RMK AO2 SLP425 T11331156 11122 21144 53000
KTUL 171053Z 00000KT 10SM CLR M12/M14 A3074 RMK AO2 SLP423 T11221144
KTUL 170953Z 00000KT 10SM CLR M13/M16 A3075 RMK AO2 SLP423 T11331156
KTUL 170853Z 00000KT 10SM CLR M13/M16 A3075 RMK AO2 SLP424 T11331156 55007
KTUL 170753Z 00000KT 10SM CLR M13/M16 A3075 RMK AO2 SLP424 T11331161
KTUL 170653Z 13003KT 10SM CLR M13/M16 A3076 RMK AO2 SLP428 T11331161
KTUL 170553Z 00000KT 10SM CLR M13/M16 A3077 RMK AO2 SLP432 T11331156 11100 21139 410721150 58003
KTUL 170453Z 00000KT 10SM CLR M13/M16 A3077 RMK AO2 SLP434 T11281156
KTUL 170353Z 04004KT 10SM CLR M12/M18 A3078 RMK AO2 SLP434 T11171178
KTUL 170253Z 05004KT 10SM CLR M12/M16 A3078 RMK AO2 SLP435 T11171156 50005
KTUL 170153Z 04006KT 10SM CLR M11/M16 A3078 RMK AO2 SLP436 T11111156
KTUL 170053Z 05005KT 10SM CLR M11/M16 A3077 RMK AO2 SLP433 T11061156
KTUL 162353Z 35007KT 10SM FEW040 M10/M16 A3076 RMK AO2 SLP429 T11001161 11072 21100 53000
KTUL 162253Z 35009KT 10SM CLR M08/M17 A3075 RMK AO2 SLP425 T10831167
KTUL 162153Z 35011KT 10SM CLR M07/M17 A3075 RMK AO2 SLP426 T10721167
KTUL 162053Z 36009KT 10SM CLR M07/M18 A3076 RMK AO2 SLP428 T10721178 56027
KTUL 161953Z 35012KT 10SM FEW040 M08/M18 A3077 RMK AO2 SLP430 T10781178
KTUL 161853Z 33011KT 10SM FEW032 M08/M18 A3079 RMK AO2 SLP440 T10831183
KTUL 161753Z 35013G20KT 10SM FEW033 M10/M19 A3084 RMK AO2 SLP456 T11001189 11100 21150 58002
KTUL 161653Z 36011G19KT 10SM SCT032 M11/M19 A3086 RMK AO2 SLP462 T11111189
KTUL 161553Z 34013KT 10SM SCT026 M12/M19 A3086 RMK AO2 SLP462 T11221189
KTUL 161453Z 35012KT 10SM FEW020 M13/M19 A3085 RMK AO2 SLP458 T11331194 51016